createdAt,value
2018-12-22T00:00:35.794Z,9.80
2018-12-22T00:03:04.103Z,8.40
2018-12-22T00:05:32.441Z,9.93
2018-12-22T00:08:00.846Z,10.30
2018-12-22T00:10:29.112Z,8.77
2018-12-22T00:12:57.427Z,8.80
2018-12-22T00:15:25.713Z,9.43
2018-12-22T00:17:53.938Z,9.07
2018-12-22T00:20:22.150Z,7.67
2018-12-22T00:22:50.417Z,8.17
2018-12-22T00:25:18.757Z,7.43
2018-12-22T00:27:47.007Z,7.50
2018-12-22T00:30:15.329Z,7.97
2018-12-22T00:32:43.578Z,8.97
2018-12-22T00:35:11.821Z,7.80
2018-12-22T00:37:40.143Z,9.00
2018-12-22T00:40:08.470Z,7.40
2018-12-22T00:42:36.960Z,9.03
2018-12-22T00:45:05.638Z,8.00
2018-12-22T00:47:33.937Z,7.50
2018-12-22T00:50:02.255Z,7.73
2018-12-22T00:52:30.597Z,7.83
2018-12-22T00:54:58.861Z,8.60
2018-12-22T00:57:27.116Z,7.23
2018-12-22T00:59:55.335Z,7.37
2018-12-22T01:02:23.595Z,7.50
2018-12-22T01:04:51.833Z,7.87
2018-12-22T01:07:20.120Z,7.23
2018-12-22T01:09:48.421Z,6.90
2018-12-22T01:12:16.678Z,7.30
2018-12-22T01:14:44.903Z,7.00
2018-12-22T01:17:13.138Z,6.80
2018-12-22T01:19:41.556Z,6.93
2018-12-22T01:22:09.810Z,7.20
2018-12-22T01:24:38.069Z,6.00
2018-12-22T01:27:06.460Z,6.80
2018-12-22T01:29:34.828Z,6.93
2018-12-22T01:32:03.146Z,7.60
2018-12-22T01:34:31.419Z,6.57
2018-12-22T01:36:59.668Z,7.10
2018-12-22T01:39:27.925Z,6.30
2018-12-22T01:41:56.182Z,7.50
2018-12-22T01:44:24.420Z,7.40
2018-12-22T01:46:52.694Z,7.37
2018-12-22T01:49:21.201Z,6.17
2018-12-22T01:51:49.434Z,10.07
2018-12-22T01:54:17.661Z,7.40
2018-12-22T01:56:45.907Z,8.87
2018-12-22T01:59:14.195Z,6.37
2018-12-22T02:01:42.443Z,7.10
2018-12-22T02:04:10.693Z,7.43
2018-12-22T02:06:39.003Z,8.87
2018-12-22T02:09:08.013Z,6.30
2018-12-22T02:11:36.318Z,7.37
2018-12-22T02:14:04.758Z,5.80
2018-12-22T02:16:33.021Z,5.67
2018-12-22T02:19:01.324Z,7.07
2018-12-22T02:21:29.570Z,6.23
2018-12-22T02:23:58.071Z,6.00
2018-12-22T02:26:26.334Z,7.40
2018-12-22T02:28:56.776Z,6.30
2018-12-22T02:31:24.845Z,5.90
2018-12-22T02:33:53.119Z,6.90
2018-12-22T02:36:21.677Z,6.60
2018-12-22T02:38:50.136Z,6.07
2018-12-22T02:41:18.373Z,5.03
2018-12-22T02:43:46.744Z,6.03
2018-12-22T02:46:14.981Z,7.17
2018-12-22T02:48:43.287Z,6.13
2018-12-22T02:51:11.549Z,4.83
2018-12-22T02:53:39.776Z,6.10
2018-12-22T02:56:07.994Z,5.40
2018-12-22T02:58:36.238Z,4.20
2018-12-22T03:01:04.674Z,4.60
2018-12-22T03:03:32.927Z,3.83
2018-12-22T03:06:01.244Z,3.63
2018-12-22T03:08:29.477Z,3.57
2018-12-22T03:10:57.726Z,3.90
2018-12-22T03:13:26.084Z,3.90
2018-12-22T03:15:54.397Z,4.20
2018-12-22T03:18:22.692Z,5.40
2018-12-22T03:20:50.926Z,4.03
2018-12-22T03:23:19.264Z,3.70
2018-12-22T03:25:47.528Z,4.63
2018-12-22T03:28:15.773Z,5.33
2018-12-22T03:30:44.095Z,5.27
2018-12-22T03:33:12.371Z,5.03
2018-12-22T03:35:40.625Z,5.60
2018-12-22T03:38:08.974Z,5.70
2018-12-22T03:40:37.287Z,4.20
2018-12-22T03:43:05.549Z,4.80
2018-12-22T03:45:33.942Z,3.80
2018-12-22T03:48:02.271Z,5.43
2018-12-22T03:50:30.496Z,4.57
2018-12-22T03:52:58.882Z,4.27
2018-12-22T03:55:27.131Z,5.27
2018-12-22T03:57:55.367Z,5.40
2018-12-22T04:00:23.703Z,4.40
2018-12-22T04:02:52.659Z,4.57
2018-12-22T04:05:20.978Z,5.47
2018-12-22T04:07:49.242Z,4.77
2018-12-22T04:10:17.599Z,5.10
2018-12-22T04:12:45.881Z,5.90
2018-12-22T04:15:14.327Z,3.77
2018-12-22T04:17:42.696Z,6.33
2018-12-22T04:20:11.004Z,5.90
2018-12-22T04:22:39.343Z,3.97
2018-12-22T04:25:07.688Z,4.50
2018-12-22T04:27:36.020Z,5.10
2018-12-22T04:30:04.518Z,4.03
2018-12-22T04:32:32.747Z,3.70
2018-12-22T04:35:00.999Z,3.97
2018-12-22T04:37:29.258Z,4.83
2018-12-22T04:39:57.687Z,3.67
2018-12-22T04:42:25.985Z,4.00
2018-12-22T04:44:54.207Z,4.70
2018-12-22T04:47:22.446Z,3.43
2018-12-22T04:49:50.683Z,5.30
2018-12-22T04:52:18.921Z,4.50
2018-12-22T04:54:47.151Z,3.83
2018-12-22T04:57:15.370Z,5.40
2018-12-22T04:59:43.603Z,5.60
2018-12-22T05:02:11.938Z,4.00
2018-12-22T05:04:40.189Z,4.43
2018-12-22T05:07:08.440Z,4.63
2018-12-22T05:09:36.669Z,3.60
2018-12-22T05:12:04.967Z,4.17
2018-12-22T05:14:33.251Z,3.60
2018-12-22T05:17:01.665Z,3.03
2018-12-22T05:19:29.900Z,3.30
2018-12-22T05:21:58.129Z,3.23
2018-12-22T05:24:26.379Z,3.90
2018-12-22T05:26:54.593Z,3.80
2018-12-22T05:29:22.853Z,3.37
2018-12-22T05:31:51.155Z,3.90
2018-12-22T05:34:19.390Z,5.47
2018-12-22T05:36:47.617Z,3.57
2018-12-22T05:39:15.913Z,3.67
2018-12-22T05:41:44.135Z,3.00
2018-12-22T05:44:12.350Z,4.43
2018-12-22T05:46:40.586Z,3.77
2018-12-22T05:49:08.819Z,2.73
2018-12-22T05:51:37.074Z,3.10
2018-12-22T05:54:05.306Z,3.47
2018-12-22T05:56:33.575Z,2.83
2018-12-22T05:59:01.815Z,3.10
2018-12-22T06:01:30.131Z,2.40
2018-12-22T06:03:58.359Z,2.40
2018-12-22T06:06:26.678Z,3.17
2018-12-22T06:08:54.918Z,2.53
2018-12-22T06:11:23.160Z,2.77
2018-12-22T06:13:51.388Z,3.47
2018-12-22T06:16:19.652Z,4.40
2018-12-22T06:18:47.901Z,3.20
2018-12-22T06:21:16.164Z,3.27
2018-12-22T06:23:44.401Z,3.83
2018-12-22T06:26:12.641Z,4.00
2018-12-22T06:28:40.892Z,2.03
2018-12-22T06:31:09.175Z,2.70
2018-12-22T06:33:37.450Z,3.00
2018-12-22T06:36:05.817Z,2.53
2018-12-22T06:38:34.237Z,3.40
2018-12-22T06:41:02.468Z,1.90
2018-12-22T06:43:30.702Z,3.33
2018-12-22T06:45:58.916Z,2.73
2018-12-22T06:48:27.163Z,2.30
2018-12-22T06:50:55.453Z,2.93
2018-12-22T06:53:23.692Z,4.07
2018-12-22T06:55:51.915Z,3.17
2018-12-22T06:58:20.229Z,3.07
2018-12-22T07:00:48.467Z,2.80
2018-12-22T07:03:16.762Z,2.83
2018-12-22T07:05:45.082Z,2.33
2018-12-22T07:08:13.472Z,3.10
2018-12-22T07:10:41.717Z,2.50
2018-12-22T07:13:10.092Z,2.50
2018-12-22T07:15:38.666Z,2.20
2018-12-22T07:18:06.981Z,3.33
2018-12-22T07:20:35.217Z,3.00
2018-12-22T07:23:03.527Z,3.40
2018-12-22T07:25:31.770Z,2.80
2018-12-22T07:28:00.170Z,2.60
2018-12-22T07:30:28.390Z,2.40
2018-12-22T07:32:57.394Z,2.53
2018-12-22T07:35:26.164Z,2.33
2018-12-22T07:37:54.381Z,2.90
2018-12-22T07:40:22.658Z,2.13
2018-12-22T07:42:50.983Z,3.77
2018-12-22T07:45:19.265Z,3.20
2018-12-22T07:47:48.240Z,2.30
2018-12-22T07:50:16.480Z,3.60
2018-12-22T07:52:51.565Z,3.33
2018-12-22T07:55:15.070Z,2.93
2018-12-22T07:57:43.311Z,3.60
2018-12-22T08:00:11.807Z,2.17
2018-12-22T08:02:40.045Z,3.47
2018-12-22T08:05:08.326Z,2.50
2018-12-22T08:07:36.551Z,2.97
2018-12-22T08:10:05.245Z,2.17
2018-12-22T08:12:33.504Z,2.90
2018-12-22T08:15:02.051Z,3.40
2018-12-22T08:17:30.400Z,2.60
2018-12-22T08:19:58.841Z,3.00
2018-12-22T08:22:27.096Z,3.60
2018-12-22T08:24:55.535Z,2.63
2018-12-22T08:27:23.985Z,2.53
2018-12-22T08:29:52.259Z,2.90
2018-12-22T08:32:20.762Z,3.80
2018-12-22T08:34:48.977Z,3.77
2018-12-22T08:37:17.225Z,3.70
2018-12-22T08:39:45.469Z,3.90
2018-12-22T08:42:14.150Z,4.53
2018-12-22T08:44:42.929Z,3.77
2018-12-22T08:47:11.233Z,2.70
2018-12-22T08:49:39.509Z,4.90
2018-12-22T08:52:07.777Z,3.33
2018-12-22T08:54:36.102Z,2.83
2018-12-22T08:57:04.469Z,2.67
2018-12-22T08:59:32.728Z,2.87
2018-12-22T09:02:01.051Z,2.70
2018-12-22T09:04:30.463Z,2.90
2018-12-22T09:06:58.821Z,2.80
2018-12-22T09:09:27.079Z,2.50
2018-12-22T09:11:55.316Z,3.80
2018-12-22T09:14:23.566Z,2.80
2018-12-22T09:16:51.903Z,3.17
2018-12-22T09:19:20.127Z,4.90
2018-12-22T09:21:48.361Z,6.83
2018-12-22T09:24:16.774Z,3.27
2018-12-22T09:26:45.050Z,3.00
2018-12-22T09:29:13.310Z,2.20
2018-12-22T09:31:41.575Z,3.20
2018-12-22T09:34:13.414Z,4.00
2018-12-22T09:36:40.326Z,4.23
2018-12-22T09:39:08.886Z,2.93
2018-12-22T09:41:37.205Z,3.30
2018-12-22T09:44:05.543Z,3.83
2018-12-22T09:46:34.350Z,3.27
2018-12-22T09:49:02.657Z,2.97
2018-12-22T09:51:31.205Z,2.83
2018-12-22T09:53:59.622Z,2.53
2018-12-22T09:56:27.839Z,1.93
2018-12-22T09:58:56.106Z,2.17
2018-12-22T10:01:24.372Z,3.13
2018-12-22T10:03:52.735Z,3.10
2018-12-22T10:06:21.010Z,2.77
2018-12-22T10:08:49.265Z,2.60
2018-12-22T10:11:17.506Z,2.07
2018-12-22T10:13:45.760Z,2.97
2018-12-22T10:16:13.995Z,4.03
2018-12-22T10:18:42.538Z,2.50
2018-12-22T10:21:10.805Z,2.53
2018-12-22T10:23:39.106Z,2.33
2018-12-22T10:26:07.330Z,2.60
2018-12-22T10:28:35.657Z,3.00
2018-12-22T10:31:03.962Z,2.90
2018-12-22T10:33:32.213Z,2.10
2018-12-22T10:36:00.455Z,2.90
2018-12-22T10:38:28.680Z,2.80
2018-12-22T10:40:56.921Z,2.57
2018-12-22T10:43:25.241Z,3.57
2018-12-22T10:45:53.485Z,3.73
2018-12-22T10:48:21.713Z,2.40
2018-12-22T10:50:49.958Z,3.03
2018-12-22T10:53:18.201Z,3.37
2018-12-22T10:55:46.525Z,3.17
2018-12-22T10:58:14.777Z,2.80
2018-12-22T11:00:43.026Z,3.17
2018-12-22T11:03:11.293Z,2.87
2018-12-22T11:05:39.624Z,3.10
2018-12-22T11:08:07.994Z,3.50
2018-12-22T11:10:36.732Z,2.30
2018-12-22T11:13:05.014Z,3.03
2018-12-22T11:15:33.236Z,3.20
2018-12-22T11:18:01.722Z,2.50
2018-12-22T11:20:29.954Z,3.33
2018-12-22T11:22:58.207Z,2.50
2018-12-22T11:25:26.849Z,2.83
2018-12-22T11:27:56.110Z,3.10
2018-12-22T11:30:27.483Z,2.90
2018-12-22T11:32:55.717Z,2.63
2018-12-22T11:35:23.942Z,2.67
2018-12-22T11:37:52.180Z,3.00
2018-12-22T11:40:20.436Z,4.10
2018-12-22T11:42:48.758Z,2.80
2018-12-22T11:45:17.035Z,3.70
2018-12-22T11:47:54.868Z,3.93
2018-12-22T11:50:25.446Z,4.00
2018-12-22T11:52:53.831Z,4.00
2018-12-22T11:55:22.143Z,4.40
2018-12-22T11:57:50.421Z,4.10
2018-12-22T12:00:18.750Z,3.93
2018-12-22T12:02:47.029Z,2.97
2018-12-22T12:05:15.377Z,3.03
2018-12-22T12:07:43.716Z,5.03
2018-12-22T12:10:12.061Z,3.67
2018-12-22T12:12:40.502Z,4.90
2018-12-22T12:15:17.138Z,5.03
2018-12-22T12:18:55.340Z,4.30
2018-12-22T12:21:23.585Z,4.47
2018-12-22T12:23:52.858Z,4.67
2018-12-22T12:26:21.217Z,3.90
2018-12-22T12:28:49.730Z,3.73
2018-12-22T12:31:18.243Z,3.37
2018-12-22T12:33:46.779Z,4.40
2018-12-22T12:36:15.022Z,3.87
2018-12-22T12:38:43.309Z,3.83
2018-12-22T12:41:11.719Z,3.00
2018-12-22T12:43:40.095Z,3.27
2018-12-22T12:46:08.447Z,3.60
2018-12-22T12:48:36.857Z,2.90
2018-12-22T12:51:05.208Z,3.43
2018-12-22T12:53:33.597Z,2.77
2018-12-22T12:56:01.828Z,3.53
2018-12-22T12:58:30.150Z,3.10
2018-12-22T13:00:58.406Z,3.53
2018-12-22T13:03:26.649Z,2.20
2018-12-22T13:05:54.931Z,3.10
2018-12-22T13:08:23.318Z,2.37
2018-12-22T13:10:51.771Z,3.23
2018-12-22T13:13:37.866Z,3.00
2018-12-22T13:16:06.139Z,2.90
2018-12-22T13:18:34.762Z,2.50
2018-12-22T13:21:04.472Z,2.70
2018-12-22T13:23:33.154Z,2.80
2018-12-22T13:26:01.714Z,3.60
2018-12-22T13:28:30.152Z,2.40
2018-12-22T13:30:58.410Z,2.23
2018-12-22T13:33:26.789Z,3.20
2018-12-22T13:35:55.379Z,3.27
2018-12-22T13:38:23.913Z,2.07
2018-12-22T13:40:52.327Z,2.47
2018-12-22T13:43:20.950Z,2.83
2018-12-22T13:45:49.300Z,2.80
2018-12-22T13:48:17.639Z,2.63
2018-12-22T13:50:45.955Z,3.30
2018-12-22T13:53:14.362Z,3.47
2018-12-22T13:55:42.636Z,3.10
2018-12-22T13:58:11.059Z,2.37
2018-12-22T14:00:42.930Z,2.77
2018-12-22T14:05:57.074Z,3.03
2018-12-22T14:08:25.935Z,2.43
2018-12-22T14:10:54.285Z,2.43
2018-12-22T14:13:22.522Z,3.20
2018-12-22T14:15:55.101Z,2.47
2018-12-22T14:18:35.049Z,2.77
2018-12-22T14:21:03.350Z,3.13
2018-12-22T14:23:46.725Z,3.23
2018-12-22T14:26:15.227Z,2.90
2018-12-22T14:28:43.687Z,3.27
2018-12-22T14:31:12.060Z,2.83
2018-12-22T14:33:40.897Z,2.43
2018-12-22T14:36:11.613Z,2.20
2018-12-22T14:38:39.865Z,2.63
2018-12-22T14:41:08.231Z,2.80
2018-12-22T14:43:36.482Z,2.93
2018-12-22T14:46:05.928Z,3.03
2018-12-22T14:48:34.229Z,3.00
2018-12-22T14:51:02.524Z,2.33
2018-12-22T14:53:30.864Z,3.00
2018-12-22T14:55:59.286Z,2.30
2018-12-22T14:58:28.963Z,3.70
2018-12-22T15:00:57.263Z,2.50
2018-12-22T15:03:25.792Z,3.50
2018-12-22T15:05:54.107Z,2.83
2018-12-22T15:08:22.595Z,2.90
2018-12-22T15:10:50.912Z,2.93
2018-12-22T15:13:19.172Z,2.83
2018-12-22T15:15:47.496Z,2.80
2018-12-22T15:18:15.753Z,2.57
2018-12-22T15:20:44.070Z,2.20
2018-12-22T15:23:14.011Z,3.60
2018-12-22T15:25:42.386Z,3.30
2018-12-22T15:28:10.740Z,3.27
2018-12-22T15:30:39.086Z,2.67
2018-12-22T15:33:07.504Z,2.77
2018-12-22T15:35:35.939Z,3.33
2018-12-22T15:38:04.403Z,3.77
2018-12-22T15:40:32.683Z,2.83
2018-12-22T15:43:01.075Z,2.80
2018-12-22T15:45:29.481Z,3.17
2018-12-22T15:47:57.771Z,4.30
2018-12-22T15:50:28.341Z,2.80
2018-12-22T15:52:56.814Z,3.80
2018-12-22T15:55:25.238Z,3.00
2018-12-22T15:57:53.529Z,3.30
2018-12-22T16:00:21.851Z,2.40
2018-12-22T16:02:53.437Z,3.30
2018-12-22T16:05:20.471Z,2.77
2018-12-22T16:07:48.870Z,3.40
2018-12-22T16:10:17.142Z,3.27
2018-12-22T16:12:45.666Z,5.07
2018-12-22T16:15:16.193Z,4.20
2018-12-22T16:17:44.602Z,4.73
2018-12-22T16:20:13.279Z,4.10
2018-12-22T16:22:45.302Z,4.23
2018-12-22T16:25:13.827Z,6.87
2018-12-22T16:27:42.110Z,10.72
2018-12-22T16:30:16.411Z,11.20
2018-12-22T16:32:44.696Z,9.77
2018-12-22T16:35:13.647Z,11.43
2018-12-22T16:37:42.558Z,9.60
2018-12-22T16:40:11.858Z,9.00
2018-12-22T16:42:40.340Z,7.60
2018-12-22T16:45:11.679Z,6.97
2018-12-22T16:47:40.118Z,7.33
2018-12-22T16:50:10.987Z,6.67
2018-12-22T16:52:39.421Z,7.77
2018-12-22T16:55:10.127Z,6.57
2018-12-22T16:57:40.213Z,4.53
2018-12-22T17:00:12.645Z,34.97
2018-12-22T17:02:52.615Z,33.50
2018-12-22T17:05:21.304Z,32.08
2018-12-22T17:07:49.900Z,34.97
2018-12-22T17:10:18.225Z,48.07
2018-12-22T17:12:47.151Z,28.27
2018-12-22T17:15:21.903Z,38.30
2018-12-22T17:17:45.938Z,35.50
2018-12-22T17:20:14.475Z,23.70
2018-12-22T17:22:54.069Z,23.60
2018-12-22T17:25:30.902Z,23.33
2018-12-22T17:27:59.786Z,21.23
2018-12-22T17:30:28.033Z,14.10
2018-12-22T17:32:56.337Z,16.60
2018-12-22T17:35:24.692Z,15.70
2018-12-22T17:37:53.292Z,14.00
2018-12-22T17:40:21.687Z,9.73
2018-12-22T17:42:50.095Z,11.00
2018-12-22T17:45:18.446Z,11.90
2018-12-22T17:47:46.694Z,9.20
2018-12-22T17:50:15.874Z,8.50
2018-12-22T17:52:44.194Z,8.20
2018-12-22T17:55:12.511Z,7.17
2018-12-22T17:57:40.905Z,7.17
2018-12-22T18:00:10.913Z,6.50
2018-12-22T18:02:39.317Z,6.17
2018-12-22T18:05:07.776Z,7.50
2018-12-22T18:07:36.147Z,5.70
2018-12-22T18:10:05.382Z,5.80
2018-12-22T18:12:33.771Z,4.97
2018-12-22T18:15:02.774Z,6.20
2018-12-22T18:17:31.090Z,7.27
2018-12-22T18:19:59.379Z,7.40
2018-12-22T18:22:27.651Z,5.40
2018-12-22T18:24:56.019Z,5.63
2018-12-22T18:27:24.273Z,4.60
2018-12-22T18:29:52.565Z,5.73
2018-12-22T18:32:21.240Z,5.60
2018-12-22T18:34:49.535Z,5.50
2018-12-22T18:37:17.898Z,4.80
2018-12-22T18:39:46.481Z,6.30
2018-12-22T18:42:15.053Z,4.67
2018-12-22T18:44:43.379Z,6.47
2018-12-22T18:47:11.670Z,5.40
2018-12-22T18:49:39.896Z,4.73
2018-12-22T18:52:08.344Z,5.60
2018-12-22T18:54:36.958Z,5.20
2018-12-22T18:57:05.374Z,4.50
2018-12-22T18:59:33.735Z,4.83
2018-12-22T19:02:02.133Z,4.80
2018-12-22T19:04:30.389Z,4.77
2018-12-22T19:06:58.870Z,4.60
2018-12-22T19:09:29.631Z,4.57
2018-12-22T19:11:58.251Z,5.20
2018-12-22T19:14:26.482Z,4.63
2018-12-22T19:16:54.810Z,4.20
2018-12-22T19:19:23.182Z,4.63
2018-12-22T19:21:51.531Z,4.63
2018-12-22T19:24:19.792Z,6.00
2018-12-22T19:26:48.090Z,5.70
2018-12-22T19:29:16.333Z,4.93
2018-12-22T19:31:44.568Z,4.73
2018-12-22T19:34:12.957Z,5.07
2018-12-22T19:36:41.241Z,6.50
2018-12-22T19:39:09.927Z,4.57
2018-12-22T19:41:38.193Z,5.60
2018-12-22T19:44:06.456Z,6.47
2018-12-22T19:46:35.274Z,5.37
2018-12-22T19:49:03.516Z,5.37
2018-12-22T19:51:33.098Z,5.50
2018-12-22T19:54:01.323Z,5.20
2018-12-22T19:56:29.624Z,4.60
2018-12-22T19:58:57.893Z,4.83
2018-12-22T20:01:26.141Z,4.50
2018-12-22T20:04:01.870Z,5.50
2018-12-22T20:06:24.775Z,4.40
2018-12-22T20:08:53.052Z,4.50
2018-12-22T20:11:21.309Z,5.27
2018-12-22T20:13:49.578Z,4.00
2018-12-22T20:16:17.848Z,5.07
2018-12-22T20:18:46.674Z,4.93
2018-12-22T20:21:14.919Z,6.30
2018-12-22T20:23:43.168Z,5.17
2018-12-22T20:26:12.171Z,4.73
2018-12-22T20:28:40.444Z,4.33
2018-12-22T20:31:08.712Z,4.63
2018-12-22T20:33:37.703Z,4.50
2018-12-22T20:36:05.942Z,5.73
2018-12-22T20:38:34.666Z,4.57
2018-12-22T20:41:02.971Z,4.07
2018-12-22T20:43:31.231Z,4.93
2018-12-22T20:46:00.503Z,4.67
2018-12-22T20:48:28.800Z,4.37
2018-12-22T20:50:57.037Z,3.83
2018-12-22T20:53:25.286Z,5.03
2018-12-22T20:55:53.510Z,4.23
2018-12-22T20:58:21.835Z,3.50
2018-12-22T21:00:50.080Z,5.37
2018-12-22T21:03:20.117Z,3.63
2018-12-22T21:05:56.051Z,4.67
2018-12-22T21:08:24.304Z,4.80
2018-12-22T21:10:52.553Z,5.23
2018-12-22T21:13:20.912Z,3.67
2018-12-22T21:15:49.265Z,3.53
2018-12-22T21:18:17.657Z,3.60
2018-12-22T21:20:45.921Z,4.73
2018-12-22T21:23:14.689Z,3.43
2018-12-22T21:25:42.919Z,5.70
2018-12-22T21:28:11.305Z,4.50
2018-12-22T21:30:39.561Z,4.40
2018-12-22T21:33:07.788Z,4.50
2018-12-22T21:35:36.217Z,4.50
2018-12-22T21:38:04.458Z,5.77
2018-12-22T21:40:33.094Z,5.47
2018-12-22T21:43:01.318Z,5.30
2018-12-22T21:45:29.598Z,4.60
2018-12-22T21:47:57.810Z,4.30
2018-12-22T21:50:26.056Z,4.07
2018-12-22T21:52:54.386Z,4.93
2018-12-22T21:55:22.650Z,4.73
2018-12-22T21:57:50.867Z,4.50
2018-12-22T22:00:19.195Z,4.47
2018-12-22T22:02:47.421Z,5.00
2018-12-22T22:05:15.739Z,4.63
2018-12-22T22:07:43.985Z,4.80
2018-12-22T22:10:12.252Z,4.10
2018-12-22T22:12:40.535Z,4.00
2018-12-22T22:15:08.863Z,4.30
2018-12-22T22:17:37.122Z,3.40
2018-12-22T22:20:12.019Z,4.17
2018-12-22T22:22:40.247Z,4.47
2018-12-22T22:25:08.526Z,3.13
2018-12-22T22:27:36.804Z,4.73
2018-12-22T22:30:05.845Z,3.63
2018-12-22T22:32:34.457Z,4.10
2018-12-22T22:35:02.901Z,3.73
2018-12-22T22:37:31.152Z,4.50
2018-12-22T22:39:59.422Z,4.00
2018-12-22T22:42:27.998Z,3.67
2018-12-22T22:44:56.307Z,4.40
2018-12-22T22:47:24.543Z,4.50
2018-12-22T22:49:52.910Z,3.63
2018-12-22T22:52:21.282Z,3.50
2018-12-22T22:54:49.593Z,3.00
2018-12-22T22:57:17.942Z,3.47
2018-12-22T22:59:46.217Z,4.83
2018-12-22T23:02:14.605Z,3.10
2018-12-22T23:04:42.833Z,4.90
2018-12-22T23:07:11.089Z,3.53
2018-12-22T23:09:39.325Z,3.40
2018-12-22T23:12:07.780Z,4.30
2018-12-22T23:14:36.790Z,3.90
2018-12-22T23:17:05.170Z,4.50
2018-12-22T23:19:35.053Z,3.20
2018-12-22T23:22:03.577Z,5.10
2018-12-22T23:24:31.813Z,3.43
2018-12-22T23:27:00.079Z,3.27
2018-12-22T23:29:28.392Z,3.33
2018-12-22T23:31:56.806Z,2.90
2018-12-22T23:34:25.142Z,3.33
2018-12-22T23:36:53.536Z,3.67
2018-12-22T23:39:22.607Z,3.30
2018-12-22T23:41:50.854Z,3.93
2018-12-22T23:44:21.250Z,2.83
2018-12-22T23:46:49.472Z,4.63
2018-12-22T23:49:18.295Z,3.20
2018-12-22T23:51:46.899Z,4.90
2018-12-22T23:54:15.219Z,3.70
2018-12-22T23:56:43.477Z,3.70
2018-12-22T23:59:11.775Z,3.00
